Time;durP1;ratioP1;P1;durP2;ratioP2;P2;SDS_P1;SDS_P2;PMS_P1;PMS_P2;Temp;Humidity;BMP_temperature;BMP_pressure;BME280_temperature;BME280_humidity;BME280_pressure;Samples;Min_cycle;Max_cycle;Signal;HPM_P1;HPM_P2
2022/02/23 00:00:47;;;;;;;;;;;;;;;;;;4374376;32;19949;-72
2022/02/23 00:03:12;;;;;;;;;;;;;;;;;;4373090;32;19972;-72
2022/02/23 00:05:37;;;;;;;;;;;;;;;;;;4374881;32;20356;-72
2022/02/23 00:08:02;;;;;;;;;;;;;;;;;;4373484;32;19995;-72
2022/02/23 00:10:28;;;;;;;;;;;;;;;;;;4375645;32;19953;-72
2022/02/23 00:12:53;;;;;;;;;;;;;;;;;;4355024;33;19934;-72
2022/02/23 00:15:18;;;;;;;;;;;;;;;;;;4360325;33;20346;-72
2022/02/23 00:17:44;;;;;;;;;;;;;;;;;;4359157;33;20026;-72
2022/02/23 00:20:09;;;;;;;;;;;;;;;;;;4359479;33;19955;-72
2022/02/23 00:22:34;;;;;;;;;;;;;;;;;;4370268;32;19987;-73
2022/02/23 00:24:59;;;;;;;;;;;;;;;;;;4374103;32;20312;-72
2022/02/23 00:27:24;;;;;;;;;;;;;;;;;;4374284;32;20004;-71
2022/02/23 00:29:50;;;;;;;;;;;;;;;;;;4372802;32;19943;-72
2022/02/23 00:32:15;;;;;;;;;;;;;;;;;;4367222;32;20329;-71
2022/02/23 00:34:40;;;;;;;;;;;;;;;;;;4358202;33;19934;-71
2022/02/23 00:37:05;;;;;;;;;;;;;;;;;;4357320;33;19935;-71
2022/02/23 00:39:30;;;;;;;;;;;;;;;;;;4357277;33;20272;-71
2022/02/23 00:41:55;;;;;;;;;;;;;;;;;;4359841;32;19949;-72
2022/02/23 00:44:20;;;;;;;;;;;;;;;;;;4360176;32;19938;-72
2022/02/23 00:46:45;;;;;;;;;;;;;;;;;;4358526;32;19943;-73
2022/02/23 00:49:10;;;;;;;;;;;;;;;;;;4358828;33;20327;-72
2022/02/23 00:51:36;;;;;;;;;;;;;;;;;;4357988;32;20312;-73
2022/02/23 00:54:01;;;;;;;;;;;;;;;;;;4359511;32;19950;-73
2022/02/23 00:56:26;;;;;;;;;;;;;;;;;;4363213;32;19934;-71
2022/02/23 00:58:51;;;;;;;;;;;;;;;;;;4360402;32;20259;-72
2022/02/23 01:01:16;;;;;;;;;;;;;;;;;;4347017;32;19946;-71
2022/02/23 01:03:41;;;;;;;;;;;;;;;;;;4360487;32;20268;-73
2022/02/23 01:06:06;;;;;;;;;;;;;;;;;;4346430;32;19949;-71
2022/02/23 01:08:32;;;;;;;;;;;;;;;;;;4345704;33;19957;-72
2022/02/23 01:10:57;;;;;;;;;;;;;;;;;;4346984;32;19953;-72
2022/02/23 01:13:22;;;;;;;;;;;;;;;;;;4375792;32;19961;-72
2022/02/23 01:15:47;;;;;;;;;;;;;;;;;;4362701;32;19949;-72
2022/02/23 01:18:12;;;;;;;;;;;;;;;;;;4361139;32;19948;-72
2022/02/23 01:20:37;;;;;;;;;;;;;;;;;;4374759;32;19976;-73
2022/02/23 01:23:02;;;;;;;;;;;;;;;;;;4356411;32;20271;-72
2022/02/23 01:25:29;;;;;;;;;;;;;;;;;;4375763;32;19993;-72
2022/02/23 01:27:54;;;;;;;;;;;;;;;;;;4373999;32;19969;-72
2022/02/23 01:30:19;;;;;;;;;;;;;;;;;;4375851;32;20007;-72
2022/02/23 01:32:44;;;;;;;;;;;;;;;;;;4360970;32;20066;-74
2022/02/23 01:35:09;;;;;;;;;;;;;;;;;;4359296;32;20245;-73
2022/02/23 01:37:34;;;;;;;;;;;;;;;;;;4360032;32;19943;-72
2022/02/23 01:39:59;;;;;;;;;;;;;;;;;;4360505;32;19939;-72
2022/02/23 01:42:25;;;;;;;;;;;;;;;;;;4359340;32;20362;-72
2022/02/23 01:44:50;;;;;;;;;;;;;;;;;;4360075;33;19946;-72
2022/02/23 01:47:15;;;;;;;;;;;;;;;;;;4359784;32;19977;-72
2022/02/23 01:49:40;;;;;;;;;;;;;;;;;;4359106;33;20268;-72
2022/02/23 01:52:05;;;;;;;;;;;;;;;;;;4361039;32;19962;-71
2022/02/23 01:54:30;;;;;;;;;;;;;;;;;;4359342;32;19984;-72
2022/02/23 01:56:55;;;;;;;;;;;;;;;;;;4360697;32;19990;-72
2022/02/23 01:59:20;;;;;;;;;;;;;;;;;;4359249;32;19946;-72
2022/02/23 02:01:45;;;;;;;;;;;;;;;;;;4360419;32;19938;-72
2022/02/23 02:04:10;;;;;;;;;;;;;;;;;;4358732;32;19935;-72
2022/02/23 02:06:36;;;;;;;;;;;;;;;;;;4358827;32;19942;-72
2022/02/23 02:09:01;;;;;;;;;;;;;;;;;;4347139;32;19954;-72
2022/02/23 02:11:26;;;;;;;;;;;;;;;;;;4358874;33;20342;-72
2022/02/23 02:13:51;;;;;;;;;;;;;;;;;;4362041;32;19953;-72
2022/02/23 02:16:16;;;;;;;;;;;;;;;;;;4368081;32;19946;-72
2022/02/23 02:18:42;;;;;;;;;;;;;;;;;;4375760;32;19946;-72
2022/02/23 02:21:07;;;;;;;;;;;;;;;;;;4373994;32;19944;-71
2022/02/23 02:23:32;;;;;;;;;;;;;;;;;;4375184;32;19948;-71
2022/02/23 02:25:57;;;;;;;;;;;;;;;;;;4362176;32;19938;-70
2022/02/23 02:28:22;;;;;;;;;;;;;;;;;;4360740;32;20253;-71
2022/02/23 02:30:47;;;;;;;;;;;;;;;;;;4370950;32;19997;-71
2022/02/23 02:33:12;;;;;;;;;;;;;;;;;;4360196;32;19982;-72
2022/02/23 02:35:38;;;;;;;;;;;;;;;;;;4359245;32;19938;-71
2022/02/23 02:38:03;;;;;;;;;;;;;;;;;;4359265;32;19942;-71
2022/02/23 02:40:28;;;;;;;;;;;;;;;;;;4345242;33;19980;-71
2022/02/23 02:42:54;;;;;;;;;;;;;;;;;;4358364;32;19943;-71
2022/02/23 02:45:19;;;;;;;;;;;;;;;;;;4360210;32;20341;-70
2022/02/23 02:47:44;;;;;;;;;;;;;;;;;;4345139;33;19934;-71
2022/02/23 02:50:09;;;;;;;;;;;;;;;;;;4359018;32;19935;-71
2022/02/23 02:52:34;;;;;;;;;;;;;;;;;;4362208;32;19938;-73
2022/02/23 02:54:59;;;;;;;;;;;;;;;;;;4360104;32;20025;-71
2022/02/23 02:57:24;;;;;;;;;;;;;;;;;;4374136;32;20033;-71
2022/02/23 02:59:49;;;;;;;;;;;;;;;;;;4372972;32;19981;-70
2022/02/23 03:02:14;;;;;;;;;;;;;;;;;;4359502;32;19969;-72
2022/02/23 03:04:40;;;;;;;;;;;;;;;;;;4374995;32;20251;-71
2022/02/23 03:07:05;;;;;;;;;;;;;;;;;;4358346;32;19957;-71
2022/02/23 03:09:30;;;;;;;;;;;;;;;;;;4372340;32;20041;-71
2022/02/23 03:11:55;;;;;;;;;;;;;;;;;;4358957;32;20064;-71
2022/02/23 03:14:20;;;;;;;;;;;;;;;;;;4358863;32;20352;-71
2022/02/23 03:16:47;;;;;;;;;;;;;;;;;;4372816;32;20399;-71
2022/02/23 03:19:13;;;;;;;;;;;;;;;;;;4360323;32;19942;-71
2022/02/23 03:21:38;;;;;;;;;;;;;;;;;;4374517;32;20225;-71
2022/02/23 03:24:03;;;;;;;;;;;;;;;;;;4372548;32;20029;-71
2022/02/23 03:26:28;;;;;;;;;;;;;;;;;;4373397;32;19933;-71
2022/02/23 03:28:53;;;;;;;;;;;;;;;;;;4373936;32;20012;-71
2022/02/23 03:31:18;;;;;;;;;;;;;;;;;;4363329;32;19973;-71
2022/02/23 03:33:45;;;;;;;;;;;;;;;;;;4344186;33;20296;-72
2022/02/23 03:36:11;;;;;;;;;;;;;;;;;;4357460;32;19977;-72
2022/02/23 03:38:36;;;;;;;;;;;;;;;;;;4358092;32;19959;-71
2022/02/23 03:41:01;;;;;;;;;;;;;;;;;;4358237;32;19938;-71
2022/02/23 03:43:26;;;;;;;;;;;;;;;;;;4357679;32;19934;-71
2022/02/23 03:45:51;;;;;;;;;;;;;;;;;;4358328;32;19943;-71
2022/02/23 03:48:16;;;;;;;;;;;;;;;;;;4359067;32;19946;-71
2022/02/23 03:50:41;;;;;;;;;;;;;;;;;;4358239;32;20347;-71
2022/02/23 03:53:06;;;;;;;;;;;;;;;;;;4358188;32;19934;-72
2022/02/23 03:55:32;;;;;;;;;;;;;;;;;;4357585;33;20373;-72
2022/02/23 03:57:57;;;;;;;;;;;;;;;;;;4343761;32;19986;-72
2022/02/23 04:00:22;;;;;;;;;;;;;;;;;;4358463;32;19934;-72
2022/02/23 04:02:47;;;;;;;;;;;;;;;;;;4358859;33;19949;-72
2022/02/23 04:05:12;;;;;;;;;;;;;;;;;;4359234;33;19934;-71
2022/02/23 04:07:37;;;;;;;;;;;;;;;;;;4357023;33;20296;-72
2022/02/23 04:10:02;;;;;;;;;;;;;;;;;;4357532;33;19934;-71
2022/02/23 04:12:28;;;;;;;;;;;;;;;;;;4358875;33;19935;-71
2022/02/23 04:14:53;;;;;;;;;;;;;;;;;;4360789;32;19957;-72
2022/02/23 04:17:18;;;;;;;;;;;;;;;;;;4372341;32;19986;-72
2022/02/23 04:19:43;;;;;;;;;;;;;;;;;;4373217;32;19957;-73
2022/02/23 04:22:08;;;;;;;;;;;;;;;;;;4358221;32;19942;-71
2022/02/23 04:24:33;;;;;;;;;;;;;;;;;;4371610;32;19934;-72
2022/02/23 04:26:59;;;;;;;;;;;;;;;;;;4372762;32;19938;-72
2022/02/23 04:29:24;;;;;;;;;;;;;;;;;;4374153;32;20302;-72
2022/02/23 04:31:50;;;;;;;;;;;;;;;;;;4361240;32;20259;-72
2022/02/23 04:34:15;;;;;;;;;;;;;;;;;;4376851;32;19985;-72
2022/02/23 04:36:40;;;;;;;;;;;;;;;;;;4375068;32;19942;-72
2022/02/23 04:39:05;;;;;;;;;;;;;;;;;;4374553;32;19989;-72
2022/02/23 04:41:30;;;;;;;;;;;;;;;;;;4374208;32;19968;-73
2022/02/23 04:43:55;;;;;;;;;;;;;;;;;;4361509;32;20312;-72
2022/02/23 04:46:20;;;;;;;;;;;;;;;;;;4360574;32;19934;-71
2022/02/23 04:48:45;;;;;;;;;;;;;;;;;;4361052;32;19946;-71
2022/02/23 04:51:11;;;;;;;;;;;;;;;;;;4361594;32;19935;-72
2022/02/23 04:53:36;;;;;;;;;;;;;;;;;;4346270;33;19955;-72
2022/02/23 04:56:01;;;;;;;;;;;;;;;;;;4359138;32;19950;-72
2022/02/23 04:58:27;;;;;;;;;;;;;;;;;;4348097;32;19943;-71
2022/02/23 05:00:52;;;;;;;;;;;;;;;;;;4361671;32;19957;-71
2022/02/23 05:03:17;;;;;;;;;;;;;;;;;;4361470;32;19938;-72
2022/02/23 05:05:42;;;;;;;;;;;;;;;;;;4360339;32;19938;-72
2022/02/23 05:08:07;;;;;;;;;;;;;;;;;;4359580;32;20292;-72
2022/02/23 05:10:33;;;;;;;;;;;;;;;;;;4358744;33;19944;-72
2022/02/23 05:12:58;;;;;;;;;;;;;;;;;;4373017;32;20234;-72
2022/02/23 05:15:23;;;;;;;;;;;;;;;;;;4374202;32;19997;-72
2022/02/23 05:17:48;;;;;;;;;;;;;;;;;;4362095;32;19998;-71
2022/02/23 05:20:13;;;;;;;;;;;;;;;;;;4359680;32;19949;-71
2022/02/23 05:22:38;;;;;;;;;;;;;;;;;;4360153;32;19934;-72
2022/02/23 05:25:03;;;;;;;;;;;;;;;;;;4358749;33;19958;-72
2022/02/23 05:27:28;;;;;;;;;;;;;;;;;;4360223;32;19969;-71
2022/02/23 05:29:53;;;;;;;;;;;;;;;;;;4359558;32;19993;-72
2022/02/23 05:32:18;;;;;;;;;;;;;;;;;;4364625;32;19948;-72
2022/02/23 05:34:43;;;;;;;;;;;;;;;;;;4375400;32;19946;-72
2022/02/23 05:37:09;;;;;;;;;;;;;;;;;;4373768;32;19974;-71
2022/02/23 05:39:34;;;;;;;;;;;;;;;;;;4373607;32;19964;-72
2022/02/23 05:41:59;;;;;;;;;;;;;;;;;;4372657;32;19977;-71
2022/02/23 05:44:24;;;;;;;;;;;;;;;;;;4374732;32;19990;-70
2022/02/23 05:46:49;;;;;;;;;;;;;;;;;;4369388;32;20037;-70
2022/02/23 05:49:15;;;;;;;;;;;;;;;;;;4345696;33;20285;-71
2022/02/23 05:51:40;;;;;;;;;;;;;;;;;;4359044;32;19962;-70
2022/02/23 05:54:05;;;;;;;;;;;;;;;;;;4359916;32;19970;-71
2022/02/23 05:56:30;;;;;;;;;;;;;;;;;;4359677;32;19948;-71
2022/02/23 05:58:56;;;;;;;;;;;;;;;;;;4347458;32;19945;-72
2022/02/23 06:01:21;;;;;;;;;;;;;;;;;;4360276;33;19972;-71
2022/02/23 06:03:46;;;;;;;;;;;;;;;;;;4362059;32;19945;-71
2022/02/23 06:06:11;;;;;;;;;;;;;;;;;;4362550;32;19934;-71
2022/02/23 06:08:36;;;;;;;;;;;;;;;;;;4362653;32;19934;-71
2022/02/23 06:11:03;;;;;;;;;;;;;;;;;;4359377;32;19939;-71
2022/02/23 06:13:28;;;;;;;;;;;;;;;;;;4359412;32;19982;-71
2022/02/23 06:15:53;;;;;;;;;;;;;;;;;;4359312;32;19995;-71
2022/02/23 06:18:18;;;;;;;;;;;;;;;;;;4360519;32;20315;-71
2022/02/23 06:20:43;;;;;;;;;;;;;;;;;;4360199;32;20000;-71
2022/02/23 06:23:08;;;;;;;;;;;;;;;;;;4358691;33;19934;-71
2022/02/23 06:25:33;;;;;;;;;;;;;;;;;;4360255;32;19942;-71
2022/02/23 06:27:59;;;;;;;;;;;;;;;;;;4359565;32;20025;-71
2022/02/23 06:30:24;;;;;;;;;;;;;;;;;;4358264;32;20340;-72
2022/02/23 06:32:49;;;;;;;;;;;;;;;;;;4358788;32;19936;-74
2022/02/23 06:35:14;;;;;;;;;;;;;;;;;;4365566;32;19937;-72
2022/02/23 06:37:39;;;;;;;;;;;;;;;;;;4373820;32;20332;-72
2022/02/23 06:40:04;;;;;;;;;;;;;;;;;;4373091;32;20018;-72
2022/02/23 06:42:29;;;;;;;;;;;;;;;;;;4374781;32;20328;-72
2022/02/23 06:44:55;;;;;;;;;;;;;;;;;;4372704;32;19987;-72
2022/02/23 06:47:20;;;;;;;;;;;;;;;;;;4373175;32;19995;-72
2022/02/23 06:49:45;;;;;;;;;;;;;;;;;;4368123;32;19939;-73
2022/02/23 06:52:10;;;;;;;;;;;;;;;;;;4358759;32;19945;-72
2022/02/23 06:54:35;;;;;;;;;;;;;;;;;;4346583;33;19946;-71
2022/02/23 06:57:00;;;;;;;;;;;;;;;;;;4362623;32;19934;-71
2022/02/23 06:59:25;;;;;;;;;;;;;;;;;;4362246;32;19958;-72
2022/02/23 07:01:51;;;;;;;;;;;;;;;;;;4359134;32;19962;-71
2022/02/23 07:04:16;;;;;;;;;;;;;;;;;;4372081;32;20092;-71
2022/02/23 07:06:41;;;;;;;;;;;;;;;;;;4359707;32;19995;-70
2022/02/23 07:09:06;;;;;;;;;;;;;;;;;;4345399;32;20288;-72
2022/02/23 07:11:31;;;;;;;;;;;;;;;;;;4365519;32;19934;-72
2022/02/23 07:13:56;;;;;;;;;;;;;;;;;;4372333;32;19945;-72
2022/02/23 07:16:23;;;;;;;;;;;;;;;;;;4358879;32;19934;-71
2022/02/23 07:18:48;;;;;;;;;;;;;;;;;;4358597;32;19935;-70
2022/02/23 07:21:13;;;;;;;;;;;;;;;;;;4359232;32;20024;-72
2022/02/23 07:23:39;;;;;;;;;;;;;;;;;;4365403;32;19942;-72
2022/02/23 07:26:04;;;;;;;;;;;;;;;;;;4373798;32;19937;-72
2022/02/23 07:28:29;;;;;;;;;;;;;;;;;;4370039;32;20062;-71
2022/02/23 07:30:54;;;;;;;;;;;;;;;;;;4360030;32;19969;-71
2022/02/23 07:33:19;;;;;;;;;;;;;;;;;;4365725;32;19934;-71
2022/02/23 07:35:45;;;;;;;;;;;;;;;;;;4372022;32;20077;-71
2022/02/23 07:38:10;;;;;;;;;;;;;;;;;;4359446;32;19973;-71
2022/02/23 07:40:35;;;;;;;;;;;;;;;;;;4343807;33;19974;-71
2022/02/23 07:43:00;;;;;;;;;;;;;;;;;;4357160;32;19998;-71
2022/02/23 07:45:25;;;;;;;;;;;;;;;;;;4360042;32;19947;-70
2022/02/23 07:47:50;;;;;;;;;;;;;;;;;;4366111;32;19938;-70
2022/02/23 07:50:17;;;;;;;;;;;;;;;;;;4357305;33;20064;-71
2022/02/23 07:52:47;;;;;;;;;;;;;;;;;;4358800;32;20401;-70
2022/02/23 07:55:12;;;;;;;;;;;;;;;;;;4371287;32;19934;-71
2022/02/23 07:57:37;;;;;;;;;;;;;;;;;;4372321;32;20345;-71
2022/02/23 08:00:02;;;;;;;;;;;;;;;;;;4373657;32;19989;-70
2022/02/23 08:02:27;;;;;;;;;;;;;;;;;;4366927;32;19988;-72
2022/02/23 08:04:53;;;;;;;;;;;;;;;;;;4345731;32;19997;-71
2022/02/23 08:07:18;;;;;;;;;;;;;;;;;;4361611;32;19968;-71
2022/02/23 08:09:43;;;;;;;;;;;;;;;;;;4368308;32;20012;-72
2022/02/23 08:12:11;;;;;;;;;;;;;;;;;;4373800;32;19950;-72
2022/02/23 08:14:36;;;;;;;;;;;;;;;;;;4358707;32;19934;-71
2022/02/23 08:19:46;;;;;;;;;;;;;;;;;;4373877;32;19980;-72
2022/02/23 08:22:11;;;;;;;;;;;;;;;;;;4359445;32;19939;-72
2022/02/23 08:24:37;;;;;;;;;;;;;;;;;;4374808;32;19941;-72
2022/02/23 08:27:02;;;;;;;;;;;;;;;;;;4371409;32;19946;-71
2022/02/23 08:29:28;;;;;;;;;;;;;;;;;;4372444;32;20315;-72
2022/02/23 08:31:53;;;;;;;;;;;;;;;;;;4360216;32;20102;-71
2022/02/23 08:34:18;;;;;;;;;;;;;;;;;;4371831;32;19957;-72
2022/02/23 08:36:44;;;;;;;;;;;;;;;;;;4370466;32;20048;-71
2022/02/23 08:39:09;;;;;;;;;;;;;;;;;;4371741;32;20028;-72
2022/02/23 08:41:34;;;;;;;;;;;;;;;;;;4371637;32;19949;-72
2022/02/23 08:44:00;;;;;;;;;;;;;;;;;;4372994;32;20320;-70
2022/02/23 08:46:25;;;;;;;;;;;;;;;;;;4358912;32;20350;-72
2022/02/23 08:48:52;;;;;;;;;;;;;;;;;;4373456;32;20277;-72
2022/02/23 08:51:18;;;;;;;;;;;;;;;;;;4369316;32;20050;-72
2022/02/23 08:53:43;;;;;;;;;;;;;;;;;;4358243;33;19950;-71
2022/02/23 08:56:08;;;;;;;;;;;;;;;;;;4358489;33;19934;-71
2022/02/23 08:58:33;;;;;;;;;;;;;;;;;;4358103;33;19997;-72
2022/02/23 09:00:58;;;;;;;;;;;;;;;;;;4358955;33;20019;-71
2022/02/23 09:03:23;;;;;;;;;;;;;;;;;;4366085;32;19935;-71
2022/02/23 09:05:48;;;;;;;;;;;;;;;;;;4357453;33;19972;-72
2022/02/23 09:08:13;;;;;;;;;;;;;;;;;;4346101;33;19938;-71
2022/02/23 09:10:38;;;;;;;;;;;;;;;;;;4360387;33;19982;-72
2022/02/23 09:13:04;;;;;;;;;;;;;;;;;;4361115;33;19947;-71
2022/02/23 09:15:29;;;;;;;;;;;;;;;;;;4347721;33;19939;-70
2022/02/23 09:17:54;;;;;;;;;;;;;;;;;;4368618;32;19938;-71
2022/02/23 09:20:19;;;;;;;;;;;;;;;;;;4377299;32;19938;-71
2022/02/23 09:22:44;;;;;;;;;;;;;;;;;;4376712;32;19934;-70
2022/02/23 09:25:09;;;;;;;;;;;;;;;;;;4361330;32;20328;-71
2022/02/23 09:27:34;;;;;;;;;;;;;;;;;;4372958;32;19945;-74
2022/02/23 09:29:59;;;;;;;;;;;;;;;;;;4348592;33;19938;-71
2022/02/23 09:32:24;;;;;;;;;;;;;;;;;;4370474;32;20041;-72
2022/02/23 09:34:50;;;;;;;;;;;;;;;;;;4362493;32;20230;-70
2022/02/23 09:37:15;;;;;;;;;;;;;;;;;;4363819;32;19980;-70
2022/02/23 09:39:40;;;;;;;;;;;;;;;;;;4361648;32;19942;-71
2022/02/23 09:42:05;;;;;;;;;;;;;;;;;;4349051;33;19974;-71
2022/02/23 09:44:31;;;;;;;;;;;;;;;;;;4361633;32;19935;-70
2022/02/23 09:46:56;;;;;;;;;;;;;;;;;;4373122;32;19942;-70
2022/02/23 09:49:21;;;;;;;;;;;;;;;;;;4375386;32;19958;-71
2022/02/23 09:51:49;;;;;;;;;;;;;;;;;;4371874;32;19942;-72
2022/02/23 09:54:14;;;;;;;;;;;;;;;;;;4365656;32;19952;-70
2022/02/23 09:56:39;;;;;;;;;;;;;;;;;;4364347;32;19942;-71
2022/02/23 09:59:05;;;;;;;;;;;;;;;;;;4374204;32;20397;-72
2022/02/23 10:01:32;;;;;;;;;;;;;;;;;;4376674;32;19957;-71
2022/02/23 10:03:57;;;;;;;;;;;;;;;;;;4355310;32;19984;-71
2022/02/23 10:06:22;;;;;;;;;;;;;;;;;;4346652;32;20328;-70
2022/02/23 10:08:47;;;;;;;;;;;;;;;;;;4366099;32;20076;-70
2022/02/23 10:11:13;;;;;;;;;;;;;;;;;;4348637;33;19953;-69
2022/02/23 10:13:38;;;;;;;;;;;;;;;;;;4361180;32;20311;-70
2022/02/23 10:16:52;;;;;;;33.63;9.20;;;;;;;;;;4480028;31;20058;-68
2022/02/23 10:19:19;;;;;;;27.42;6.95;;;;;;;;;;4462230;32;20033;-73
2022/02/23 10:21:49;;;;;;;24.75;6.90;;;;;;;;;;4478768;32;20472;-72
2022/02/23 10:24:18;;;;;;;22.42;7.47;;;;;;;;;;4473432;32;20029;-70
2022/02/23 10:26:52;;;;;;;20.70;7.12;;;;;;;;;;4477052;32;20098;-68
2022/02/23 10:29:23;;;;;;;32.30;8.23;;;;;;;;;;4477362;32;20066;-70
2022/02/23 10:31:50;;;;;;;18.52;6.07;;;;;;;;;;4470077;32;20059;-69
2022/02/23 10:34:20;;;;;;;25.48;7.37;;;;;;;;;;4452375;32;20087;-69
2022/02/23 10:36:56;;;;;;;23.92;7.28;;;;;;;;;;4463762;32;20126;-69
2022/02/23 10:39:21;;;;;;;28.62;7.82;;;;;;;;;;4454415;32;20038;-68
2022/02/23 10:41:46;;;;;;;;;;;;;;;;;;4457144;32;20053;-69
2022/02/23 10:44:12;;;;;;;21.20;6.80;;;;;;;;;;4457657;32;20309;-71
2022/02/23 10:46:37;;;;;;;;;;;;;;;;;;4458160;32;20063;-70
2022/02/23 10:49:02;;;;;;;19.92;6.57;;;;;;;;;;4460746;32;19956;-70
2022/02/23 10:51:29;;;;;;;;;;;;;;;;;;4460901;32;20059;-70
2022/02/23 10:54:01;;;;;;;35.25;7.03;;;;;;;;;;4462740;32;20288;-71
2022/02/23 10:56:28;;;;;;;28.30;8.25;;;;;;;;;;4452948;32;20038;-71
2022/02/23 10:59:02;;;;;;;27.15;8.82;;;;;;;;;;4449099;32;20065;-70
2022/02/23 11:01:28;;;;;;;19.70;6.05;;;;;;;;;;4458884;32;20487;-70
2022/02/23 11:03:53;;;;;;;;;;;;;;;;;;4456558;32;20069;-70
2022/02/23 11:06:18;;;;;;;18.17;4.85;;;;;;;;;;4450328;32;19941;-70
2022/02/23 11:08:49;;;;;;;;;;;;;;;;;;4459922;32;20362;-70
2022/02/23 11:11:14;;;;;;;19.15;4.30;;;;;;;;;;4460444;32;19932;-71
2022/02/23 11:13:39;;;;;;;;;;;;;;;;;;4439826;32;20085;-70
2022/02/23 11:16:05;;;;;;;21.12;6.97;;;;;;;;;;4456841;32;19937;-70
2022/02/23 11:18:30;;;;;;;;;;;;;;;;;;4462613;32;20463;-70
2022/02/23 11:20:56;;;;;;;22.48;5.28;;;;;;;;;;4459182;32;20366;-70
2022/02/23 11:23:22;;;;;;;;;;;;;;;;;;4462454;32;20577;-70
2022/02/23 11:25:48;;;;;;;17.00;4.20;;;;;;;;;;4448224;32;20066;-69
2022/02/23 11:28:25;;;;;;;21.00;4.87;;;;;;;;;;4431975;32;20173;-70
2022/02/23 11:30:57;;;;;;;14.20;4.55;;;;;;;;;;4443671;32;20191;-69
2022/02/23 11:33:41;;;;;;;16.87;4.18;;;;;;;;;;4444742;32;20418;-70
2022/02/23 11:36:19;;;;;;;12.75;4.10;;;;;;;;;;4439224;32;20358;-70
2022/02/23 11:38:45;;;;;;;12.25;3.78;;;;;;;;;;4435118;32;20041;-71
2022/02/23 11:41:10;;;;;;;;;;;;;;;;;;4435189;32;20209;-69
2022/02/23 11:43:39;;;;;;;12.23;3.10;;;;;;;;;;4437020;32;20265;-70
2022/02/23 11:46:05;;;;;;;15.38;3.75;;;;;;;;;;4437033;32;20065;-69
2022/02/23 11:48:47;;;;;;;17.12;4.55;;;;;;;;;;4449587;32;20025;-70
2022/02/23 11:51:22;;;;;;;16.52;4.03;;;;;;;;;;4449593;32;20026;-70
2022/02/23 11:53:47;;;;;;;20.35;4.47;;;;;;;;;;4446695;32;20338;-70
2022/02/23 11:56:12;;;;;;;;;;;;;;;;;;4436442;32;20096;-69
2022/02/23 11:58:46;;;;;;;16.87;3.50;;;;;;;;;;4441343;32;19949;-70
2022/02/23 12:01:12;;;;;;;18.00;4.65;;;;;;;;;;4436358;32;20059;-69
2022/02/23 12:03:37;;;;;;;;;;;;;;;;;;4445023;32;20087;-69
2022/02/23 12:06:05;;;;;;;13.52;3.55;;;;;;;;;;4442826;32;19992;-70
2022/02/23 12:08:33;;;;;;;9.00;3.08;;;;;;;;;;4438402;32;20025;-71
2022/02/23 12:10:59;;;;;;;16.02;3.90;;;;;;;;;;4453124;32;20100;-70
2022/02/23 12:13:24;;;;;;;;;;;;;;;;;;4425511;32;20487;-71
2022/02/23 12:15:50;;;;;;;15.15;3.97;;;;;;;;;;4445863;32;20229;-70
2022/02/23 12:18:16;;;;;;;13.60;4.10;;;;;;;;;;4437907;32;20354;-71
2022/02/23 12:20:42;;;;;;;;;;;;;;;;;;4436189;32;20085;-71
2022/02/23 12:23:09;;;;;;;12.27;4.00;;;;;;;;;;4439839;32;19976;-70
2022/02/23 12:25:53;;;;;;;15.20;4.35;;;;;;;;;;4438205;32;20030;-70
2022/02/23 12:28:26;;;;;;;16.95;5.15;;;;;;;;;;4439817;32;20081;-71
2022/02/23 12:30:56;;;;;;;15.93;4.75;;;;;;;;;;4450152;32;20067;-71
2022/02/23 12:33:22;;;;;;;12.73;5.00;;;;;;;;;;4435792;32;20059;-71
2022/02/23 12:35:47;;;;;;;;;;;;;;;;;;4450129;32;20038;-71
2022/02/23 12:38:14;;;;;;;15.57;5.05;;;;;;;;;;4449498;32;19940;-71
2022/02/23 12:40:39;;;;;;;21.05;4.93;;;;;;;;;;4450427;32;20052;-71
2022/02/23 12:43:04;;;;;;;;;;;;;;;;;;4438138;32;20033;-71
2022/02/23 12:45:30;;;;;;;27.33;7.43;;;;;;;;;;4435898;32;20256;-71
2022/02/23 12:47:55;;;;;;;;;;;;;;;;;;4437708;32;20037;-71
2022/02/23 12:50:24;;;;;;;16.98;5.20;;;;;;;;;;4445130;32;19997;-71
2022/02/23 12:52:50;;;;;;;19.25;5.97;;;;;;;;;;4434738;32;20017;-71
2022/02/23 12:55:18;;;;;;;28.48;6.10;;;;;;;;;;4436885;32;20315;-72
2022/02/23 12:57:43;;;;;;;20.83;5.53;;;;;;;;;;4436961;32;20104;-70
2022/02/23 13:00:08;;;;;;;;;;;;;;;;;;4435784;32;20046;-71
2022/02/23 13:02:34;;;;;;;11.77;3.55;;;;;;;;;;4436021;32;20018;-72
2022/02/23 13:04:59;;;;;;;19.15;5.12;;;;;;;;;;4421614;32;20074;-73
2022/02/23 13:07:25;;;;;;;21.15;4.20;;;;;;;;;;4437804;32;20052;-71
2022/02/23 13:09:55;;;;;;;;;;;;;;;;;;4422268;32;20033;-71
2022/02/23 13:12:22;;;;;;;15.38;3.90;;;;;;;;;;4437253;32;19933;-71
2022/02/23 13:14:47;;;;;;;14.40;3.60;;;;;;;;;;4435603;32;20055;-72
2022/02/23 13:17:13;;;;;;;13.30;4.57;;;;;;;;;;4436188;32;20026;-72
2022/02/23 13:19:42;;;;;;;19.70;3.92;;;;;;;;;;4436322;32;20029;-72
2022/02/23 13:22:08;;;;;;;16.90;4.35;;;;;;;;;;4434915;32;20041;-70
2022/02/23 13:24:40;;;;;;;14.82;3.90;;;;;;;;;;4435472;32;20057;-72
2022/02/23 13:27:09;;;;;;;14.13;4.12;;;;;;;;;;4423292;32;20142;-72
2022/02/23 13:29:36;;;;;;;15.48;3.65;;;;;;;;;;4437161;32;20072;-71
2022/02/23 13:32:03;;;;;;;14.80;4.00;;;;;;;;;;4421318;32;20075;-71
2022/02/23 13:34:30;;;;;;;16.27;4.18;;;;;;;;;;4435600;32;20037;-72
2022/02/23 13:36:58;;;;;;;17.30;4.62;;;;;;;;;;4436368;32;20109;-71
2022/02/23 13:39:23;;;;;;;16.80;4.30;;;;;;;;;;4435302;32;20110;-72
2022/02/23 13:41:48;;;;;;;;;;;;;;;;;;4437945;32;20093;-72
2022/02/23 13:44:17;;;;;;;13.05;3.67;;;;;;;;;;4439113;32;19987;-71
2022/02/23 13:46:44;;;;;;;19.33;3.92;;;;;;;;;;4439328;32;20194;-71
2022/02/23 13:49:09;;;;;;;16.48;3.92;;;;;;;;;;4436411;32;20053;-71
2022/02/23 13:51:35;;;;;;;;;;;;;;;;;;4423405;32;20143;-70
2022/02/23 13:54:05;;;;;;;24.08;4.05;;;;;;;;;;4436074;32;20367;-73
2022/02/23 13:56:31;;;;;;;12.90;3.97;;;;;;;;;;4435408;32;20077;-70
2022/02/23 13:58:56;;;;;;;;;;;;;;;;;;4435867;32;20026;-71
2022/02/23 14:01:23;;;;;;;15.30;4.70;;;;;;;;;;4434710;32;19955;-71
2022/02/23 14:03:48;;;;;;;11.80;3.40;;;;;;;;;;4434382;32;20056;-73
2022/02/23 14:06:13;;;;;;;;;;;;;;;;;;4434883;32;20496;-71
2022/02/23 14:08:39;;;;;;;20.35;4.87;;;;;;;;;;4436087;32;19973;-73
2022/02/23 14:11:14;;;;;;;14.25;4.90;;;;;;;;;;4435097;32;20092;-71
2022/02/23 14:13:40;;;;;;;20.95;4.53;;;;;;;;;;4419828;32;20121;-72
2022/02/23 14:16:06;;;;;;;18.62;5.35;;;;;;;;;;4434657;32;20033;-71
2022/02/23 14:18:31;;;;;;;16.62;4.37;;;;;;;;;;4419795;32;20483;-70
2022/02/23 14:20:56;;;;;;;;;;;;;;;;;;4419711;32;20033;-71
2022/02/23 14:23:23;;;;;;;15.43;3.75;;;;;;;;;;4434515;32;19940;-71
2022/02/23 14:25:52;;;;;;;14.32;3.70;;;;;;;;;;4423098;32;20125;-72
2022/02/23 14:28:27;;;;;;;19.52;5.35;;;;;;;;;;4434941;32;20320;-72
2022/02/23 14:30:54;;;;;;;15.13;4.55;;;;;;;;;;4436090;32;20026;-70
2022/02/23 14:33:26;;;;;;;18.37;4.60;;;;;;;;;;4433835;32;20057;-71
2022/02/23 14:35:51;;;;;;;17.20;4.25;;;;;;;;;;4435498;32;20022;-71
2022/02/23 14:38:16;;;;;;;14.25;4.05;;;;;;;;;;4434372;32;20026;-72
2022/02/23 14:40:41;;;;;;;;;;;;;;;;;;4435984;32;20056;-72
2022/02/23 14:43:07;;;;;;;10.38;3.80;;;;;;;;;;4436547;32;19961;-72
2022/02/23 14:45:32;;;;;;;19.15;4.85;;;;;;;;;;4436322;32;20029;-72
2022/02/23 14:47:58;;;;;;;;;;;;;;;;;;4434875;32;20026;-72
2022/02/23 14:50:24;;;;;;;17.85;3.20;;;;;;;;;;4435340;32;19992;-72
2022/02/23 14:52:52;;;;;;;16.60;4.37;;;;;;;;;;4420343;32;20411;-73
2022/02/23 14:55:17;;;;;;;12.25;4.40;;;;;;;;;;4435645;32;20056;-71
2022/02/23 14:57:42;;;;;;;;;;;;;;;;;;4435454;32;20022;-72
2022/02/23 15:00:10;;;;;;;20.75;3.78;;;;;;;;;;4435173;32;19937;-70
2022/02/23 15:02:36;;;;;;;13.35;3.95;;;;;;;;;;4433141;32;20374;-71
2022/02/23 15:05:01;;;;;;;;;;;;;;;;;;4437609;32;20454;-71
2022/02/23 15:07:27;;;;;;;11.05;3.83;;;;;;;;;;4437644;32;19969;-72
2022/02/23 15:09:52;;;;;;;;;;;;;;;;;;4437939;32;20026;-72
2022/02/23 15:12:18;;;;;;;11.65;3.60;;;;;;;;;;4434587;32;19941;-72
2022/02/23 15:14:43;;;;;;;;;;;;;;;;;;4438589;32;20117;-72
2022/02/23 15:17:08;;;;;;;18.75;3.65;;;;;;;;;;4443723;32;19936;-72
2022/02/23 15:19:33;;;;;;;13.40;3.72;;;;;;;;;;4451589;32;20053;-72
2022/02/23 15:21:58;;;;;;;;;;;;;;;;;;4437054;32;20325;-71
2022/02/23 15:24:25;;;;;;;13.18;3.62;;;;;;;;;;4437363;32;20347;-71
2022/02/23 15:26:50;;;;;;;13.85;3.22;;;;;;;;;;4451923;32;20282;-71
2022/02/23 15:29:15;;;;;;;;;;;;;;;;;;4453328;32;20025;-72
2022/02/23 15:31:42;;;;;;;13.57;3.80;;;;;;;;;;4452654;32;19971;-71
2022/02/23 15:34:11;;;;;;;9.52;3.42;;;;;;;;;;4452351;32;20036;-71
2022/02/23 15:36:37;;;;;;;15.73;3.85;;;;;;;;;;4436544;32;20030;-71
2022/02/23 15:39:02;;;;;;;;;;;;;;;;;;4440109;32;20418;-71
2022/02/23 15:41:27;;;;;;;16.33;4.47;;;;;;;;;;4429802;32;20310;-73
2022/02/23 15:43:52;;;;;;;;;;;;;;;;;;4452549;32;20154;-72
2022/02/23 15:46:17;;;;;;;12.65;4.43;;;;;;;;;;4453364;32;19944;-71
2022/02/23 15:48:42;;;;;;;;;;;;;;;;;;4445624;32;20073;-72
2022/02/23 15:51:08;;;;;;;14.25;3.30;;;;;;;;;;4437996;32;19933;-70
2022/02/23 15:53:33;;;;;;;;;;;;;;;;;;4434593;32;20464;-71
2022/02/23 15:55:58;;;;;;;17.80;4.40;;;;;;;;;;4437092;32;19979;-71
2022/02/23 15:58:23;;;;;;;;;;;;;;;;;;4439208;32;20026;-72